sensor_id;sensor_type;location;lat;lon;timestamp;P1;durP1;ratioP1;P2;durP2;ratioP2
39050;SDS011;24805;55.852;37.644;2022-07-24T00:00:47;18.67;;;11.10;;
39050;SDS011;24805;55.852;37.644;2022-07-24T00:05:49;18.10;;;11.80;;
39050;SDS011;24805;55.852;37.644;2022-07-24T00:10:51;18.33;;;12.02;;
39050;SDS011;24805;55.852;37.644;2022-07-24T00:15:53;20.65;;;11.85;;
39050;SDS011;24805;55.852;37.644;2022-07-24T00:20:56;18.92;;;11.70;;
39050;SDS011;24805;55.852;37.644;2022-07-24T00:25:58;17.30;;;11.88;;
39050;SDS011;24805;55.852;37.644;2022-07-24T00:31:00;18.58;;;10.73;;
39050;SDS011;24805;55.852;37.644;2022-07-24T00:36:02;14.32;;;11.35;;
39050;SDS011;24805;55.852;37.644;2022-07-24T00:41:05;23.90;;;12.48;;
39050;SDS011;24805;55.852;37.644;2022-07-24T00:46:07;24.35;;;13.20;;
39050;SDS011;24805;55.852;37.644;2022-07-24T00:51:09;23.00;;;13.43;;
39050;SDS011;24805;55.852;37.644;2022-07-24T00:56:12;25.40;;;12.90;;
39050;SDS011;24805;55.852;37.644;2022-07-24T01:01:15;20.95;;;13.80;;
39050;SDS011;24805;55.852;37.644;2022-07-24T01:06:18;28.38;;;12.40;;
39050;SDS011;24805;55.852;37.644;2022-07-24T01:11:21;22.15;;;12.98;;
39050;SDS011;24805;55.852;37.644;2022-07-24T01:16:25;23.33;;;11.45;;
39050;SDS011;24805;55.852;37.644;2022-07-24T01:21:28;22.27;;;11.25;;
39050;SDS011;24805;55.852;37.644;2022-07-24T01:26:30;23.17;;;11.40;;
39050;SDS011;24805;55.852;37.644;2022-07-24T01:31:32;22.33;;;11.40;;
39050;SDS011;24805;55.852;37.644;2022-07-24T01:36:35;17.05;;;11.43;;
39050;SDS011;24805;55.852;37.644;2022-07-24T01:41:37;22.33;;;11.45;;
39050;SDS011;24805;55.852;37.644;2022-07-24T01:46:39;18.52;;;10.55;;
39050;SDS011;24805;55.852;37.644;2022-07-24T01:51:42;18.52;;;10.10;;
39050;SDS011;24805;55.852;37.644;2022-07-24T01:56:44;16.80;;;9.18;;
39050;SDS011;24805;55.852;37.644;2022-07-24T02:01:46;19.42;;;9.55;;
39050;SDS011;24805;55.852;37.644;2022-07-24T02:06:48;18.10;;;9.45;;
39050;SDS011;24805;55.852;37.644;2022-07-24T02:11:50;20.13;;;10.02;;
39050;SDS011;24805;55.852;37.644;2022-07-24T02:16:53;15.30;;;9.70;;
39050;SDS011;24805;55.852;37.644;2022-07-24T02:21:55;18.23;;;8.95;;
39050;SDS011;24805;55.852;37.644;2022-07-24T02:26:57;15.38;;;9.73;;
39050;SDS011;24805;55.852;37.644;2022-07-24T02:32:04;13.48;;;9.50;;
39050;SDS011;24805;55.852;37.644;2022-07-24T02:37:06;15.18;;;9.00;;
39050;SDS011;24805;55.852;37.644;2022-07-24T02:42:08;11.60;;;9.55;;
39050;SDS011;24805;55.852;37.644;2022-07-24T02:47:10;13.13;;;8.77;;
39050;SDS011;24805;55.852;37.644;2022-07-24T02:52:13;14.63;;;9.45;;
39050;SDS011;24805;55.852;37.644;2022-07-24T02:57:15;12.13;;;9.02;;
39050;SDS011;24805;55.852;37.644;2022-07-24T03:02:17;17.98;;;9.73;;
39050;SDS011;24805;55.852;37.644;2022-07-24T03:07:19;14.48;;;9.38;;
39050;SDS011;24805;55.852;37.644;2022-07-24T03:12:21;13.23;;;9.30;;
39050;SDS011;24805;55.852;37.644;2022-07-24T03:17:23;18.48;;;10.38;;
39050;SDS011;24805;55.852;37.644;2022-07-24T03:22:25;15.00;;;9.70;;
39050;SDS011;24805;55.852;37.644;2022-07-24T03:27:28;14.35;;;9.88;;
39050;SDS011;24805;55.852;37.644;2022-07-24T03:32:30;13.95;;;10.15;;
39050;SDS011;24805;55.852;37.644;2022-07-24T03:37:32;16.23;;;10.02;;
39050;SDS011;24805;55.852;37.644;2022-07-24T03:42:34;13.30;;;9.82;;
39050;SDS011;24805;55.852;37.644;2022-07-24T03:47:37;17.35;;;10.35;;
39050;SDS011;24805;55.852;37.644;2022-07-24T03:52:39;17.17;;;10.02;;
39050;SDS011;24805;55.852;37.644;2022-07-24T03:57:42;14.00;;;9.60;;
39050;SDS011;24805;55.852;37.644;2022-07-24T04:02:44;11.55;;;9.85;;
39050;SDS011;24805;55.852;37.644;2022-07-24T04:07:46;13.85;;;9.40;;
39050;SDS011;24805;55.852;37.644;2022-07-24T04:12:48;12.65;;;9.30;;
39050;SDS011;24805;55.852;37.644;2022-07-24T04:17:50;15.45;;;9.60;;
39050;SDS011;24805;55.852;37.644;2022-07-24T04:22:52;14.70;;;10.27;;
39050;SDS011;24805;55.852;37.644;2022-07-24T04:27:58;16.35;;;9.82;;
39050;SDS011;24805;55.852;37.644;2022-07-24T04:33:00;14.13;;;9.55;;
39050;SDS011;24805;55.852;37.644;2022-07-24T04:38:03;14.50;;;9.32;;
39050;SDS011;24805;55.852;37.644;2022-07-24T04:43:05;13.13;;;9.20;;
39050;SDS011;24805;55.852;37.644;2022-07-24T04:48:07;16.38;;;8.77;;
39050;SDS011;24805;55.852;37.644;2022-07-24T04:53:09;13.25;;;9.15;;
39050;SDS011;24805;55.852;37.644;2022-07-24T04:58:11;12.52;;;7.65;;
39050;SDS011;24805;55.852;37.644;2022-07-24T05:03:13;13.63;;;7.82;;
39050;SDS011;24805;55.852;37.644;2022-07-24T05:08:16;11.82;;;7.43;;
39050;SDS011;24805;55.852;37.644;2022-07-24T05:13:18;8.65;;;5.80;;
39050;SDS011;24805;55.852;37.644;2022-07-24T05:18:20;10.85;;;6.80;;
39050;SDS011;24805;55.852;37.644;2022-07-24T05:23:22;10.30;;;6.65;;
39050;SDS011;24805;55.852;37.644;2022-07-24T05:28:24;8.35;;;5.45;;
39050;SDS011;24805;55.852;37.644;2022-07-24T05:33:26;9.50;;;5.05;;
39050;SDS011;24805;55.852;37.644;2022-07-24T05:38:28;8.07;;;4.13;;
39050;SDS011;24805;55.852;37.644;2022-07-24T05:43:31;6.53;;;3.45;;
39050;SDS011;24805;55.852;37.644;2022-07-24T05:48:33;5.57;;;2.63;;
39050;SDS011;24805;55.852;37.644;2022-07-24T05:53:35;4.80;;;2.55;;
39050;SDS011;24805;55.852;37.644;2022-07-24T05:58:37;3.33;;;2.25;;
39050;SDS011;24805;55.852;37.644;2022-07-24T06:03:39;2.67;;;2.20;;
39050;SDS011;24805;55.852;37.644;2022-07-24T06:08:42;3.83;;;1.90;;
39050;SDS011;24805;55.852;37.644;2022-07-24T06:13:44;3.63;;;1.48;;
39050;SDS011;24805;55.852;37.644;2022-07-24T06:18:46;2.47;;;1.15;;
39050;SDS011;24805;55.852;37.644;2022-07-24T06:23:48;4.47;;;1.60;;
39050;SDS011;24805;55.852;37.644;2022-07-24T06:28:51;2.25;;;1.23;;
39050;SDS011;24805;55.852;37.644;2022-07-24T06:33:53;3.42;;;1.45;;
39050;SDS011;24805;55.852;37.644;2022-07-24T06:38:55;1.30;;;1.15;;
39050;SDS011;24805;55.852;37.644;2022-07-24T06:43:57;2.47;;;1.20;;
39050;SDS011;24805;55.852;37.644;2022-07-24T06:49:01;1.60;;;1.17;;
39050;SDS011;24805;55.852;37.644;2022-07-24T06:54:03;2.22;;;2.03;;
39050;SDS011;24805;55.852;37.644;2022-07-24T06:59:06;2.40;;;1.92;;
39050;SDS011;24805;55.852;37.644;2022-07-24T07:04:08;3.03;;;1.35;;
39050;SDS011;24805;55.852;37.644;2022-07-24T07:09:11;1.63;;;1.17;;
39050;SDS011;24805;55.852;37.644;2022-07-24T07:14:13;3.63;;;1.00;;
39050;SDS011;24805;55.852;37.644;2022-07-24T07:19:15;1.50;;;0.90;;
39050;SDS011;24805;55.852;37.644;2022-07-24T07:24:17;1.83;;;1.00;;
39050;SDS011;24805;55.852;37.644;2022-07-24T07:29:20;2.60;;;1.00;;
39050;SDS011;24805;55.852;37.644;2022-07-24T07:34:25;0.80;;;0.70;;
39050;SDS011;24805;55.852;37.644;2022-07-24T07:39:28;2.33;;;1.00;;
39050;SDS011;24805;55.852;37.644;2022-07-24T07:44:30;1.35;;;0.93;;
39050;SDS011;24805;55.852;37.644;2022-07-24T07:49:32;3.00;;;0.90;;
39050;SDS011;24805;55.852;37.644;2022-07-24T07:54:34;2.58;;;1.00;;
39050;SDS011;24805;55.852;37.644;2022-07-24T07:59:37;1.35;;;0.60;;
39050;SDS011;24805;55.852;37.644;2022-07-24T08:04:39;1.38;;;0.63;;
39050;SDS011;24805;55.852;37.644;2022-07-24T08:09:41;2.40;;;0.88;;
39050;SDS011;24805;55.852;37.644;2022-07-24T08:14:45;3.05;;;0.98;;
39050;SDS011;24805;55.852;37.644;2022-07-24T08:19:47;2.22;;;0.90;;
39050;SDS011;24805;55.852;37.644;2022-07-24T08:24:49;1.00;;;0.70;;
39050;SDS011;24805;55.852;37.644;2022-07-24T08:29:51;1.10;;;0.85;;
39050;SDS011;24805;55.852;37.644;2022-07-24T08:34:55;0.90;;;0.60;;
39050;SDS011;24805;55.852;37.644;2022-07-24T08:39:58;1.38;;;1.27;;
39050;SDS011;24805;55.852;37.644;2022-07-24T08:45:01;1.40;;;0.85;;
39050;SDS011;24805;55.852;37.644;2022-07-24T08:50:04;1.00;;;0.50;;
39050;SDS011;24805;55.852;37.644;2022-07-24T08:55:07;1.20;;;0.75;;
39050;SDS011;24805;55.852;37.644;2022-07-24T09:00:11;2.45;;;0.90;;
39050;SDS011;24805;55.852;37.644;2022-07-24T09:05:14;2.45;;;1.20;;
39050;SDS011;24805;55.852;37.644;2022-07-24T09:10:16;1.15;;;0.90;;
39050;SDS011;24805;55.852;37.644;2022-07-24T09:15:20;1.02;;;0.75;;
39050;SDS011;24805;55.852;37.644;2022-07-24T09:20:27;2.35;;;0.80;;
39050;SDS011;24805;55.852;37.644;2022-07-24T09:25:32;1.10;;;0.63;;
39050;SDS011;24805;55.852;37.644;2022-07-24T09:35:47;1.33;;;1.02;;
39050;SDS011;24805;55.852;37.644;2022-07-24T09:40:58;3.40;;;1.77;;
39050;SDS011;24805;55.852;37.644;2022-07-24T09:46:02;2.72;;;0.98;;
39050;SDS011;24805;55.852;37.644;2022-07-24T09:51:11;1.45;;;1.00;;
39050;SDS011;24805;55.852;37.644;2022-07-24T09:56:16;5.15;;;4.63;;
39050;SDS011;24805;55.852;37.644;2022-07-24T10:01:20;3.65;;;2.65;;
39050;SDS011;24805;55.852;37.644;2022-07-24T10:06:25;1.80;;;1.35;;
39050;SDS011;24805;55.852;37.644;2022-07-24T10:11:28;2.53;;;1.25;;
39050;SDS011;24805;55.852;37.644;2022-07-24T10:16:35;4.78;;;1.73;;
39050;SDS011;24805;55.852;37.644;2022-07-24T10:22:08;2.47;;;1.20;;
39050;SDS011;24805;55.852;37.644;2022-07-24T10:27:23;2.00;;;1.77;;
39050;SDS011;24805;55.852;37.644;2022-07-24T10:32:27;2.28;;;1.27;;
39050;SDS011;24805;55.852;37.644;2022-07-24T10:53:30;2.67;;;0.80;;
39050;SDS011;24805;55.852;37.644;2022-07-24T11:03:56;2.03;;;0.80;;
39050;SDS011;24805;55.852;37.644;2022-07-24T11:09:00;2.10;;;0.80;;
39050;SDS011;24805;55.852;37.644;2022-07-24T11:14:05;2.25;;;0.90;;
39050;SDS011;24805;55.852;37.644;2022-07-24T11:34:26;2.17;;;0.80;;
39050;SDS011;24805;55.852;37.644;2022-07-24T11:39:36;2.10;;;1.10;;
39050;SDS011;24805;55.852;37.644;2022-07-24T11:44:41;1.15;;;0.73;;
39050;SDS011;24805;55.852;37.644;2022-07-24T11:49:51;2.20;;;0.80;;
39050;SDS011;24805;55.852;37.644;2022-07-24T11:55:12;1.10;;;0.75;;
39050;SDS011;24805;55.852;37.644;2022-07-24T12:00:19;1.70;;;0.70;;
39050;SDS011;24805;55.852;37.644;2022-07-24T12:05:33;1.38;;;0.80;;
39050;SDS011;24805;55.852;37.644;2022-07-24T12:10:40;0.90;;;0.73;;
39050;SDS011;24805;55.852;37.644;2022-07-24T12:15:42;1.98;;;0.95;;
39050;SDS011;24805;55.852;37.644;2022-07-24T12:20:44;1.48;;;1.05;;
39050;SDS011;24805;55.852;37.644;2022-07-24T12:25:48;3.03;;;1.13;;
39050;SDS011;24805;55.852;37.644;2022-07-24T12:30:51;1.60;;;0.90;;
39050;SDS011;24805;55.852;37.644;2022-07-24T12:35:55;1.77;;;0.98;;
39050;SDS011;24805;55.852;37.644;2022-07-24T12:41:04;1.65;;;1.10;;
39050;SDS011;24805;55.852;37.644;2022-07-24T12:46:11;1.27;;;1.10;;
39050;SDS011;24805;55.852;37.644;2022-07-24T12:51:13;1.63;;;1.00;;
39050;SDS011;24805;55.852;37.644;2022-07-24T12:56:16;1.67;;;0.80;;
39050;SDS011;24805;55.852;37.644;2022-07-24T13:01:18;1.55;;;1.10;;
39050;SDS011;24805;55.852;37.644;2022-07-24T13:06:41;2.10;;;1.08;;
39050;SDS011;24805;55.852;37.644;2022-07-24T13:11:45;2.17;;;1.05;;
39050;SDS011;24805;55.852;37.644;2022-07-24T13:16:49;2.17;;;1.98;;
39050;SDS011;24805;55.852;37.644;2022-07-24T13:21:54;3.10;;;1.48;;
39050;SDS011;24805;55.852;37.644;2022-07-24T13:26:56;2.42;;;1.15;;
39050;SDS011;24805;55.852;37.644;2022-07-24T13:32:02;1.77;;;0.70;;
39050;SDS011;24805;55.852;37.644;2022-07-24T13:37:05;2.78;;;0.80;;
39050;SDS011;24805;55.852;37.644;2022-07-24T13:42:10;1.40;;;1.00;;
39050;SDS011;24805;55.852;37.644;2022-07-24T13:47:13;4.93;;;1.20;;
39050;SDS011;24805;55.852;37.644;2022-07-24T13:52:16;2.22;;;1.30;;
39050;SDS011;24805;55.852;37.644;2022-07-24T13:57:18;1.92;;;1.10;;
39050;SDS011;24805;55.852;37.644;2022-07-24T14:02:20;1.92;;;1.48;;
39050;SDS011;24805;55.852;37.644;2022-07-24T14:07:24;2.38;;;1.25;;
39050;SDS011;24805;55.852;37.644;2022-07-24T14:12:32;3.70;;;1.30;;
39050;SDS011;24805;55.852;37.644;2022-07-24T14:17:35;2.33;;;1.25;;
39050;SDS011;24805;55.852;37.644;2022-07-24T14:22:41;2.00;;;1.30;;
39050;SDS011;24805;55.852;37.644;2022-07-24T14:27:44;2.90;;;1.85;;
39050;SDS011;24805;55.852;37.644;2022-07-24T14:32:46;3.60;;;1.70;;
39050;SDS011;24805;55.852;37.644;2022-07-24T14:37:48;1.75;;;1.50;;
39050;SDS011;24805;55.852;37.644;2022-07-24T14:42:51;8.27;;;6.78;;
39050;SDS011;24805;55.852;37.644;2022-07-24T14:47:53;9.48;;;8.52;;
39050;SDS011;24805;55.852;37.644;2022-07-24T14:52:55;3.30;;;2.03;;
39050;SDS011;24805;55.852;37.644;2022-07-24T14:57:58;4.95;;;1.85;;
39050;SDS011;24805;55.852;37.644;2022-07-24T15:03:00;5.72;;;1.30;;
39050;SDS011;24805;55.852;37.644;2022-07-24T15:08:02;8.15;;;2.60;;
39050;SDS011;24805;55.852;37.644;2022-07-24T15:13:05;3.92;;;1.77;;
39050;SDS011;24805;55.852;37.644;2022-07-24T15:18:07;10.88;;;3.00;;
39050;SDS011;24805;55.852;37.644;2022-07-24T15:23:09;7.00;;;3.70;;
39050;SDS011;24805;55.852;37.644;2022-07-24T15:28:12;18.73;;;16.17;;
39050;SDS011;24805;55.852;37.644;2022-07-24T15:33:15;14.75;;;9.98;;
39050;SDS011;24805;55.852;37.644;2022-07-24T15:38:18;5.43;;;2.08;;
39050;SDS011;24805;55.852;37.644;2022-07-24T15:43:21;3.38;;;1.50;;
39050;SDS011;24805;55.852;37.644;2022-07-24T15:48:23;3.85;;;1.55;;
39050;SDS011;24805;55.852;37.644;2022-07-24T15:53:26;2.72;;;1.63;;
39050;SDS011;24805;55.852;37.644;2022-07-24T15:58:28;4.07;;;2.20;;
39050;SDS011;24805;55.852;37.644;2022-07-24T16:03:30;6.53;;;5.35;;
39050;SDS011;24805;55.852;37.644;2022-07-24T16:08:33;2.83;;;1.92;;
39050;SDS011;24805;55.852;37.644;2022-07-24T16:13:35;3.53;;;1.85;;
39050;SDS011;24805;55.852;37.644;2022-07-24T16:18:38;3.05;;;1.95;;
39050;SDS011;24805;55.852;37.644;2022-07-24T16:23:40;2.95;;;1.70;;
39050;SDS011;24805;55.852;37.644;2022-07-24T16:28:42;1.90;;;1.58;;
39050;SDS011;24805;55.852;37.644;2022-07-24T16:33:44;3.83;;;1.80;;
39050;SDS011;24805;55.852;37.644;2022-07-24T16:38:47;4.68;;;1.70;;
39050;SDS011;24805;55.852;37.644;2022-07-24T16:43:49;3.42;;;1.90;;
39050;SDS011;24805;55.852;37.644;2022-07-24T16:48:52;2.42;;;1.90;;
39050;SDS011;24805;55.852;37.644;2022-07-24T16:53:54;4.45;;;3.03;;
39050;SDS011;24805;55.852;37.644;2022-07-24T16:58:56;16.90;;;11.57;;
39050;SDS011;24805;55.852;37.644;2022-07-24T17:03:58;9.10;;;4.47;;
39050;SDS011;24805;55.852;37.644;2022-07-24T17:09:02;5.20;;;2.22;;
39050;SDS011;24805;55.852;37.644;2022-07-24T17:14:05;4.97;;;2.40;;
39050;SDS011;24805;55.852;37.644;2022-07-24T17:19:08;8.65;;;4.55;;
39050;SDS011;24805;55.852;37.644;2022-07-24T17:24:10;4.18;;;2.05;;
39050;SDS011;24805;55.852;37.644;2022-07-24T17:29:13;3.83;;;2.60;;
39050;SDS011;24805;55.852;37.644;2022-07-24T17:34:15;2.78;;;2.58;;
39050;SDS011;24805;55.852;37.644;2022-07-24T17:39:17;5.68;;;4.45;;
39050;SDS011;24805;55.852;37.644;2022-07-24T17:44:19;5.47;;;2.00;;
39050;SDS011;24805;55.852;37.644;2022-07-24T17:49:23;3.38;;;3.05;;
39050;SDS011;24805;55.852;37.644;2022-07-24T17:54:25;10.00;;;5.85;;
39050;SDS011;24805;55.852;37.644;2022-07-24T17:59:27;10.40;;;7.60;;
39050;SDS011;24805;55.852;37.644;2022-07-24T18:04:29;10.85;;;5.95;;
39050;SDS011;24805;55.852;37.644;2022-07-24T18:09:32;10.00;;;6.38;;
39050;SDS011;24805;55.852;37.644;2022-07-24T18:14:37;11.13;;;7.68;;
39050;SDS011;24805;55.852;37.644;2022-07-24T18:19:39;3.67;;;2.20;;
39050;SDS011;24805;55.852;37.644;2022-07-24T18:24:41;3.30;;;2.95;;
39050;SDS011;24805;55.852;37.644;2022-07-24T18:29:43;6.88;;;4.72;;
39050;SDS011;24805;55.852;37.644;2022-07-24T18:34:46;3.45;;;2.30;;
39050;SDS011;24805;55.852;37.644;2022-07-24T18:39:49;5.00;;;2.45;;
39050;SDS011;24805;55.852;37.644;2022-07-24T18:44:51;9.43;;;2.58;;
39050;SDS011;24805;55.852;37.644;2022-07-24T18:49:53;4.63;;;3.58;;
39050;SDS011;24805;55.852;37.644;2022-07-24T18:54:55;4.93;;;3.10;;
39050;SDS011;24805;55.852;37.644;2022-07-24T18:59:57;5.07;;;3.72;;
39050;SDS011;24805;55.852;37.644;2022-07-24T19:05:04;4.20;;;3.17;;
39050;SDS011;24805;55.852;37.644;2022-07-24T19:10:07;7.07;;;4.72;;
39050;SDS011;24805;55.852;37.644;2022-07-24T19:15:11;6.43;;;3.17;;
39050;SDS011;24805;55.852;37.644;2022-07-24T19:20:13;5.57;;;3.65;;
39050;SDS011;24805;55.852;37.644;2022-07-24T19:25:15;6.03;;;3.08;;
39050;SDS011;24805;55.852;37.644;2022-07-24T19:30:21;5.75;;;4.30;;
39050;SDS011;24805;55.852;37.644;2022-07-24T19:35:23;6.75;;;4.22;;
39050;SDS011;24805;55.852;37.644;2022-07-24T19:40:25;25.83;;;20.25;;
39050;SDS011;24805;55.852;37.644;2022-07-24T19:45:28;16.15;;;11.55;;
39050;SDS011;24805;55.852;37.644;2022-07-24T19:50:30;8.82;;;4.20;;
39050;SDS011;24805;55.852;37.644;2022-07-24T19:55:52;9.00;;;6.45;;
39050;SDS011;24805;55.852;37.644;2022-07-24T20:00:54;7.53;;;4.63;;
39050;SDS011;24805;55.852;37.644;2022-07-24T20:05:56;5.28;;;3.58;;
39050;SDS011;24805;55.852;37.644;2022-07-24T20:10:58;5.45;;;3.55;;
39050;SDS011;24805;55.852;37.644;2022-07-24T20:16:01;5.68;;;3.63;;
39050;SDS011;24805;55.852;37.644;2022-07-24T20:21:03;9.02;;;3.42;;
39050;SDS011;24805;55.852;37.644;2022-07-24T20:26:05;7.07;;;4.30;;
39050;SDS011;24805;55.852;37.644;2022-07-24T20:31:10;6.75;;;4.70;;
39050;SDS011;24805;55.852;37.644;2022-07-24T20:36:13;9.50;;;5.28;;
39050;SDS011;24805;55.852;37.644;2022-07-24T20:41:16;6.20;;;5.38;;
39050;SDS011;24805;55.852;37.644;2022-07-24T20:46:18;9.60;;;5.22;;
39050;SDS011;24805;55.852;37.644;2022-07-24T20:51:20;9.02;;;4.95;;
39050;SDS011;24805;55.852;37.644;2022-07-24T20:56:22;10.20;;;4.75;;
39050;SDS011;24805;55.852;37.644;2022-07-24T21:01:24;10.55;;;8.30;;
39050;SDS011;24805;55.852;37.644;2022-07-24T21:06:26;13.23;;;8.35;;
39050;SDS011;24805;55.852;37.644;2022-07-24T21:11:29;10.18;;;5.72;;
39050;SDS011;24805;55.852;37.644;2022-07-24T21:16:31;8.35;;;5.90;;
39050;SDS011;24805;55.852;37.644;2022-07-24T21:21:33;8.43;;;4.63;;
39050;SDS011;24805;55.852;37.644;2022-07-24T21:26:35;9.50;;;5.07;;
39050;SDS011;24805;55.852;37.644;2022-07-24T21:31:37;5.40;;;4.18;;
39050;SDS011;24805;55.852;37.644;2022-07-24T21:36:40;6.75;;;4.00;;
39050;SDS011;24805;55.852;37.644;2022-07-24T21:41:42;7.45;;;4.90;;
39050;SDS011;24805;55.852;37.644;2022-07-24T21:46:44;5.20;;;4.38;;
39050;SDS011;24805;55.852;37.644;2022-07-24T21:51:47;5.57;;;3.97;;
39050;SDS011;24805;55.852;37.644;2022-07-24T21:56:49;9.80;;;4.97;;
39050;SDS011;24805;55.852;37.644;2022-07-24T22:01:51;5.40;;;4.10;;
39050;SDS011;24805;55.852;37.644;2022-07-24T22:06:57;8.38;;;4.18;;
39050;SDS011;24805;55.852;37.644;2022-07-24T22:12:00;4.50;;;3.70;;
39050;SDS011;24805;55.852;37.644;2022-07-24T22:17:02;5.70;;;3.95;;
39050;SDS011;24805;55.852;37.644;2022-07-24T22:22:04;4.43;;;3.60;;
39050;SDS011;24805;55.852;37.644;2022-07-24T22:27:06;6.68;;;3.42;;
39050;SDS011;24805;55.852;37.644;2022-07-24T22:32:10;6.55;;;3.58;;
39050;SDS011;24805;55.852;37.644;2022-07-24T22:37:13;7.57;;;4.07;;
39050;SDS011;24805;55.852;37.644;2022-07-24T22:42:16;6.68;;;3.70;;
39050;SDS011;24805;55.852;37.644;2022-07-24T22:47:19;8.98;;;4.43;;
39050;SDS011;24805;55.852;37.644;2022-07-24T22:52:23;9.77;;;4.80;;
39050;SDS011;24805;55.852;37.644;2022-07-24T22:57:28;9.55;;;5.40;;
39050;SDS011;24805;55.852;37.644;2022-07-24T23:02:31;8.93;;;4.00;;
39050;SDS011;24805;55.852;37.644;2022-07-24T23:07:34;8.05;;;5.00;;
39050;SDS011;24805;55.852;37.644;2022-07-24T23:12:36;5.63;;;3.60;;
39050;SDS011;24805;55.852;37.644;2022-07-24T23:17:38;10.10;;;3.53;;
39050;SDS011;24805;55.852;37.644;2022-07-24T23:22:40;5.40;;;4.10;;
39050;SDS011;24805;55.852;37.644;2022-07-24T23:27:42;5.55;;;4.03;;
39050;SDS011;24805;55.852;37.644;2022-07-24T23:32:44;5.78;;;4.35;;
39050;SDS011;24805;55.852;37.644;2022-07-24T23:37:47;7.75;;;3.80;;
39050;SDS011;24805;55.852;37.644;2022-07-24T23:42:49;5.60;;;4.43;;
39050;SDS011;24805;55.852;37.644;2022-07-24T23:47:51;5.63;;;4.45;;
39050;SDS011;24805;55.852;37.644;2022-07-24T23:52:53;4.55;;;4.15;;
39050;SDS011;24805;55.852;37.644;2022-07-24T23:57:55;7.75;;;4.10;;
